Time;durP1;ratioP1;P1;durP2;ratioP2;P2;SDS_P1;SDS_P2;PMS_P1;PMS_P2;Temp;Humidity;BMP_temperature;BMP_pressure;BME280_temperature;BME280_humidity;BME280_pressure;Samples;Min_cycle;Max_cycle;Signal;HPM_P1;HPM_P2
2022/02/08 00:00:42;;;;;;;11.73;3.20;;;3.90;99.90;;;;;;2085207;28;20017;-71
2022/02/08 00:01:55;;;;;;;13.38;3.50;;;3.90;99.90;;;;;;2095131;28;20056;-71
2022/02/08 00:02:57;;;;;;;19.80;3.92;;;3.90;99.90;;;;;;2105303;28;20111;-71
2022/02/08 00:03:57;;;;;;;14.35;3.20;;;4.00;99.90;;;;;;2097099;28;20098;-71
2022/02/08 00:04:58;;;;;;;10.88;3.15;;;4.00;99.90;;;;;;2097787;28;20036;-71
2022/02/08 00:07:05;;;;;;;15.63;3.33;;;4.00;99.90;;;;;;2097372;28;20546;-71
2022/02/08 00:08:06;;;;;;;14.02;3.35;;;4.00;99.90;;;;;;2105912;28;20043;-71
2022/02/08 00:09:07;;;;;;;12.23;3.20;;;4.00;99.90;;;;;;2106294;28;20116;-71
2022/02/08 00:10:07;;;;;;;19.70;3.40;;;4.00;99.90;;;;;;2105988;28;20036;-72
2022/02/08 00:11:09;;;;;;;16.20;3.20;;;4.00;99.90;;;;;;2105995;28;20498;-72
2022/02/08 00:12:11;;;;;;;12.57;3.47;;;4.00;99.90;;;;;;2105663;28;20096;-69
2022/02/08 00:13:11;;;;;;;13.13;4.20;;;3.90;99.90;;;;;;2097981;28;20024;-71
2022/02/08 00:14:12;;;;;;;14.80;3.15;;;4.00;99.90;;;;;;2095066;28;20028;-69
2022/02/08 00:15:13;;;;;;;14.82;3.20;;;4.00;99.90;;;;;;2089622;28;20113;-70
2022/02/08 00:16:14;;;;;;;12.45;3.33;;;3.90;99.90;;;;;;2105936;28;20438;-70
2022/02/08 00:17:16;;;;;;;14.60;3.42;;;3.90;99.90;;;;;;2105014;28;20035;-70
2022/02/08 00:18:17;;;;;;;14.85;3.70;;;4.00;99.90;;;;;;2105570;28;20514;-72
2022/02/08 00:19:18;;;;;;;13.98;3.20;;;3.90;99.90;;;;;;2105973;28;20024;-70
2022/02/08 00:20:18;;;;;;;10.48;3.15;;;4.00;99.90;;;;;;2106856;28;20114;-70
2022/02/08 00:21:19;;;;;;;12.25;3.45;;;4.00;99.90;;;;;;2105945;28;20028;-70
2022/02/08 00:22:20;;;;;;;16.25;3.25;;;4.00;99.90;;;;;;2105535;28;20047;-70
2022/02/08 00:23:21;;;;;;;10.43;3.25;;;4.00;99.90;;;;;;2106188;28;20027;-71
2022/02/08 00:24:21;;;;;;;15.10;3.55;;;4.00;99.90;;;;;;2106357;28;20456;-70
2022/02/08 00:25:22;;;;;;;13.73;3.30;;;4.00;99.90;;;;;;2105991;28;20028;-71
2022/02/08 00:26:23;;;;;;;15.38;3.28;;;4.00;99.90;;;;;;2106147;28;20095;-71
2022/02/08 00:27:24;;;;;;;16.00;3.53;;;4.00;99.90;;;;;;2106440;28;20054;-70
2022/02/08 00:28:24;;;;;;;14.70;3.25;;;4.00;99.90;;;;;;2104237;28;20028;-73
2022/02/08 00:29:26;;;;;;;15.70;3.30;;;4.00;99.90;;;;;;2105653;28;20639;-71
2022/02/08 00:30:27;;;;;;;14.57;3.45;;;4.00;99.90;;;;;;2104334;28;20032;-72
2022/02/08 00:31:28;;;;;;;13.00;3.58;;;4.00;99.90;;;;;;2106944;28;20016;-71
2022/02/08 00:32:29;;;;;;;15.38;3.50;;;4.00;99.90;;;;;;2107323;28;20023;-71
2022/02/08 00:33:30;;;;;;;12.32;3.40;;;4.00;99.90;;;;;;2098326;28;20120;-70
2022/02/08 00:34:32;;;;;;;14.88;3.83;;;4.00;99.90;;;;;;2090650;28;20855;-71
2022/02/08 00:35:33;;;;;;;13.07;3.40;;;4.00;99.90;;;;;;2098421;28;20087;-71
2022/02/08 00:36:34;;;;;;;15.88;3.38;;;4.10;99.90;;;;;;2089615;28;20049;-71
2022/02/08 00:37:34;;;;;;;14.57;3.40;;;4.10;99.90;;;;;;2090497;28;20118;-71
2022/02/08 00:38:36;;;;;;;16.02;3.65;;;4.10;99.90;;;;;;2106920;28;20085;-71
2022/02/08 00:39:37;;;;;;;14.82;3.63;;;4.10;99.90;;;;;;2107174;28;20023;-71
2022/02/08 00:40:38;;;;;;;17.42;4.13;;;4.10;99.90;;;;;;2106388;28;20480;-71
2022/02/08 00:41:39;;;;;;;14.40;3.60;;;4.10;99.90;;;;;;2106428;28;20446;-70
2022/02/08 00:42:40;;;;;;;16.17;3.97;;;4.10;99.90;;;;;;2097896;28;20040;-70
2022/02/08 00:43:52;;;;;;;14.23;3.50;;;4.10;99.90;;;;;;2081675;28;20511;-70
2022/02/08 00:45:03;;;;;;;12.40;3.50;;;4.10;99.90;;;;;;2083353;28;20029;-72
2022/02/08 00:46:11;;;;;;;15.60;3.58;;;4.10;99.90;;;;;;2092731;28;20092;-72
2022/02/08 00:48:26;;;;;;;15.13;3.70;;;4.20;99.90;;;;;;2099255;28;20059;-71
2022/02/08 00:49:32;;;;;;;14.63;4.30;;;4.20;99.90;;;;;;2102790;28;20020;-71
2022/02/08 00:50:33;;;;;;;15.05;3.75;;;4.20;99.90;;;;;;2106807;28;20062;-71
2022/02/08 00:51:50;;;;;;;13.38;3.85;;;4.10;99.90;;;;;;2098995;28;20464;-71
2022/02/08 00:52:51;;;;;;;20.13;4.10;;;4.20;99.90;;;;;;2100237;28;20436;-72
2022/02/08 00:53:52;;;;;;;20.00;4.22;;;4.20;99.90;;;;;;2106463;28;20020;-72
2022/02/08 00:54:52;;;;;;;18.10;4.30;;;4.20;99.90;;;;;;2106083;28;20027;-70
2022/02/08 00:55:54;;;;;;;20.80;4.50;;;4.20;99.90;;;;;;2105697;28;20055;-71
2022/02/08 00:56:54;;;;;;;18.65;4.43;;;4.20;99.90;;;;;;2102386;28;20668;-71
2022/02/08 00:57:55;;;;;;;23.65;6.32;;;4.10;99.90;;;;;;2105738;28;20464;-71
2022/02/08 00:58:56;;;;;;;17.92;4.82;;;4.10;99.90;;;;;;2104923;28;20023;-71
2022/02/08 00:59:57;;;;;;;17.33;4.50;;;4.10;99.90;;;;;;2105933;28;20050;-72
2022/02/08 01:00:58;;;;;;;16.98;5.03;;;4.10;99.90;;;;;;2105800;28;20090;-71
2022/02/08 01:01:59;;;;;;;18.10;5.68;;;4.10;99.90;;;;;;2097143;28;20108;-70
2022/02/08 01:02:59;;;;;;;17.55;5.75;;;4.20;99.90;;;;;;2105565;28;20461;-71
2022/02/08 01:04:01;;;;;;;16.30;5.50;;;4.10;99.90;;;;;;2106481;28;20035;-72
2022/02/08 01:05:05;;;;;;;23.83;5.80;;;4.20;99.90;;;;;;2102926;28;20035;-71
2022/02/08 01:06:08;;;;;;;20.77;5.93;;;4.20;99.90;;;;;;2098003;28;20423;-72
2022/02/08 01:07:10;;;;;;;19.30;5.60;;;4.10;99.90;;;;;;2105138;28;20574;-72
2022/02/08 01:08:11;;;;;;;19.65;5.53;;;4.10;99.90;;;;;;2106036;28;20036;-71
2022/02/08 01:09:16;;;;;;;17.52;5.90;;;4.10;99.90;;;;;;2106607;28;20024;-71
2022/02/08 01:10:19;;;;;;;19.17;5.65;;;4.10;99.90;;;;;;2106623;28;20047;-71
2022/02/08 01:11:21;;;;;;;17.10;5.93;;;4.10;99.90;;;;;;2109956;28;20042;-71
2022/02/08 01:12:23;;;;;;;20.17;6.40;;;4.10;99.90;;;;;;2097313;28;20032;-71
2022/02/08 01:13:24;;;;;;;24.85;6.10;;;4.10;99.90;;;;;;2093344;28;20030;-71
2022/02/08 01:14:25;;;;;;;19.55;6.25;;;4.10;99.90;;;;;;2105836;28;20028;-72
2022/02/08 01:15:26;;;;;;;24.15;5.90;;;4.00;99.90;;;;;;2105550;28;20187;-71
2022/02/08 01:16:26;;;;;;;17.50;5.90;;;4.00;99.90;;;;;;2105444;28;20492;-71
2022/02/08 01:17:28;;;;;;;15.35;5.72;;;4.00;99.90;;;;;;2104290;28;20030;-71
2022/02/08 01:18:31;;;;;;;20.13;6.53;;;4.00;99.90;;;;;;2105690;28;20032;-72
2022/02/08 01:19:33;;;;;;;17.30;5.93;;;3.90;99.90;;;;;;2105723;28;20697;-71
2022/02/08 01:20:38;;;;;;;19.67;6.18;;;3.90;99.90;;;;;;2105075;28;20483;-72
2022/02/08 01:21:38;;;;;;;19.50;5.95;;;3.90;99.90;;;;;;2097243;28;20035;-72
2022/02/08 01:22:41;;;;;;;20.23;6.25;;;3.80;99.90;;;;;;2105767;28;20130;-70
2022/02/08 01:23:43;;;;;;;18.15;6.20;;;3.80;99.90;;;;;;2106224;28;20479;-72
2022/02/08 01:24:46;;;;;;;22.33;6.25;;;3.80;99.90;;;;;;2105998;28;20580;-71
2022/02/08 01:25:51;;;;;;;22.77;6.28;;;3.80;99.90;;;;;;2106117;28;20032;-72
2022/02/08 01:27:06;;;;;;;19.52;6.18;;;3.80;99.90;;;;;;2096545;28;20465;-72
2022/02/08 01:28:18;;;;;;;21.00;6.53;;;3.80;99.90;;;;;;2099193;28;20029;-72
2022/02/08 01:29:34;;;;;;;19.02;6.53;;;3.70;99.90;;;;;;2106291;28;20028;-71
2022/02/08 01:30:46;;;;;;;19.58;6.70;;;3.70;99.90;;;;;;2113980;28;20027;-71
2022/02/08 01:31:49;;;;;;;16.13;6.13;;;3.70;99.90;;;;;;2114924;28;20032;-71
2022/02/08 01:33:16;;;;;;;20.20;6.45;;;3.70;99.90;;;;;;2114626;28;20103;-71
2022/02/08 01:34:29;;;;;;;20.55;6.70;;;3.70;99.90;;;;;;2114627;28;20025;-71
2022/02/08 01:35:47;;;;;;;17.92;6.20;;;3.70;99.90;;;;;;2115063;28;20028;-71
2022/02/08 01:37:05;;;;;;;19.75;6.88;;;3.70;99.90;;;;;;2115059;28;20084;-71
2022/02/08 01:38:14;;;;;;;21.83;6.90;;;3.70;99.90;;;;;;2113984;28;20036;-71
2022/02/08 01:39:22;;;;;;;18.85;6.22;;;3.80;99.90;;;;;;2106421;28;20087;-71
2022/02/08 01:40:59;;;;;;;17.83;6.25;;;3.80;99.90;;;;;;2105835;28;20127;-71
2022/02/08 01:44:33;;;;;;;15.60;6.50;;;3.80;99.90;;;;;;2105512;28;20032;-71
2022/02/08 01:45:47;;;;;;;23.83;6.47;;;3.80;99.90;;;;;;2105311;28;20076;-71
2022/02/08 01:46:59;;;;;;;19.98;6.57;;;3.80;99.90;;;;;;2098400;28;20021;-71
2022/02/08 01:48:27;;;;;;;19.13;6.40;;;3.90;99.90;;;;;;2098318;28;20024;-71
2022/02/08 01:49:35;;;;;;;21.88;7.13;;;3.90;99.90;;;;;;2100725;28;20070;-71
2022/02/08 01:50:39;;;;;;;20.02;6.47;;;3.90;99.90;;;;;;2098181;28;20044;-71
2022/02/08 01:51:41;;;;;;;16.52;6.63;;;3.80;99.90;;;;;;2096914;28;20090;-70
2022/02/08 01:52:43;;;;;;;20.05;7.22;;;3.90;99.90;;;;;;2105716;28;20061;-71
2022/02/08 01:53:46;;;;;;;18.30;6.45;;;3.90;99.90;;;;;;2097267;28;20040;-71
2022/02/08 01:54:47;;;;;;;17.58;6.25;;;3.90;99.90;;;;;;2097048;28;20028;-71
2022/02/08 01:55:50;;;;;;;18.98;6.78;;;3.80;99.90;;;;;;2096989;28;20052;-71
2022/02/08 01:56:52;;;;;;;19.98;6.90;;;3.90;99.90;;;;;;2104629;28;20541;-71
2022/02/08 01:57:52;;;;;;;18.02;6.43;;;3.80;99.90;;;;;;2105471;28;20047;-71
2022/02/08 01:58:54;;;;;;;19.50;6.30;;;3.90;99.90;;;;;;2105045;28;20024;-71
2022/02/08 02:00:09;;;;;;;19.63;7.00;;;3.80;99.90;;;;;;2105214;28;20121;-71
2022/02/08 02:01:13;;;;;;;19.85;7.63;;;3.80;99.90;;;;;;2105325;28;20035;-71
2022/02/08 02:02:14;;;;;;;21.77;6.97;;;3.90;99.90;;;;;;2105793;28;20102;-71
2022/02/08 02:03:15;;;;;;;18.27;6.88;;;3.90;99.90;;;;;;2105505;28;20017;-71
2022/02/08 02:04:15;;;;;;;20.48;6.72;;;3.90;99.90;;;;;;2097263;28;20392;-71
2022/02/08 02:05:18;;;;;;;21.20;6.70;;;3.90;99.90;;;;;;2089594;28;20115;-71
2022/02/08 02:06:19;;;;;;;16.45;6.40;;;3.80;99.90;;;;;;2105919;28;20391;-72
2022/02/08 02:07:20;;;;;;;18.75;6.80;;;3.90;99.90;;;;;;2105469;28;20035;-71
2022/02/08 02:08:23;;;;;;;18.83;7.00;;;3.80;99.90;;;;;;2107358;28;20059;-72
2022/02/08 02:09:28;;;;;;;19.33;6.95;;;3.80;99.90;;;;;;2106589;28;20028;-71
2022/02/08 02:10:33;;;;;;;20.52;7.10;;;3.80;99.90;;;;;;2098665;28;20547;-71
2022/02/08 02:11:34;;;;;;;19.15;7.07;;;3.90;99.90;;;;;;2096648;28;20025;-71
2022/02/08 02:12:36;;;;;;;17.58;6.60;;;3.90;99.90;;;;;;2096779;28;20063;-71
2022/02/08 02:13:43;;;;;;;18.75;7.30;;;3.90;99.90;;;;;;2096832;28;20070;-71
2022/02/08 02:14:48;;;;;;;19.42;7.60;;;3.80;99.90;;;;;;2096805;28;20491;-71
2022/02/08 02:15:49;;;;;;;18.42;7.18;;;3.80;99.90;;;;;;2096712;28;20039;-71
2022/02/08 02:17:51;;;;;;;21.05;7.95;;;3.80;99.90;;;;;;2105693;28;20027;-71
2022/02/08 02:18:51;;;;;;;19.05;7.13;;;3.80;99.90;;;;;;2105052;28;20101;-71
2022/02/08 02:19:55;;;;;;;18.35;7.30;;;3.80;99.90;;;;;;2104871;28;20123;-71
2022/02/08 02:20:56;;;;;;;19.90;7.72;;;3.80;99.90;;;;;;2105132;28;20534;-71
2022/02/08 02:21:58;;;;;;;21.08;7.32;;;3.80;99.90;;;;;;2104600;28;20110;-71
2022/02/08 02:22:59;;;;;;;20.42;7.22;;;3.80;99.90;;;;;;2097292;28;20038;-71
2022/02/08 02:24:00;;;;;;;24.20;7.60;;;3.80;99.90;;;;;;2088529;28;20535;-71
2022/02/08 02:25:01;;;;;;;20.23;7.95;;;3.80;99.90;;;;;;2096874;28;20036;-71
2022/02/08 02:26:03;;;;;;;16.58;7.40;;;3.70;99.90;;;;;;2105209;28;20052;-71
2022/02/08 02:27:06;;;;;;;19.98;7.78;;;3.70;99.90;;;;;;2107448;28;20388;-71
2022/02/08 02:28:07;;;;;;;16.02;7.78;;;3.70;99.90;;;;;;2106939;28;20035;-71
2022/02/08 02:29:08;;;;;;;19.48;7.63;;;3.70;99.90;;;;;;2105727;28;20027;-71
2022/02/08 02:30:09;;;;;;;18.83;8.00;;;3.60;99.90;;;;;;2097174;28;20730;-71
2022/02/08 02:31:10;;;;;;;20.73;8.38;;;3.60;99.90;;;;;;2097221;28;20507;-72
2022/02/08 02:32:13;;;;;;;18.80;7.93;;;3.60;99.90;;;;;;2105340;28;20119;-71
2022/02/08 02:33:15;;;;;;;18.98;8.13;;;3.60;99.90;;;;;;2105554;28;20020;-71
2022/02/08 02:34:17;;;;;;;21.40;8.02;;;3.60;99.90;;;;;;2105526;28;20035;-72
2022/02/08 02:35:18;;;;;;;17.55;8.63;;;3.50;99.90;;;;;;2102614;28;20023;-71
2022/02/08 02:36:19;;;;;;;21.38;8.60;;;3.50;99.90;;;;;;2096712;28;20036;-71
2022/02/08 02:37:20;;;;;;;15.88;7.70;;;3.50;99.90;;;;;;2096698;28;20039;-71
2022/02/08 02:38:23;;;;;;;18.80;7.70;;;3.40;99.90;;;;;;2097313;28;20020;-70
2022/02/08 02:39:26;;;;;;;20.30;8.20;;;3.40;99.90;;;;;;2105950;28;20441;-71
2022/02/08 02:40:30;;;;;;;18.08;8.02;;;3.30;99.90;;;;;;2105922;28;20106;-70
2022/02/08 02:41:42;;;;;;;17.23;7.63;;;3.30;99.90;;;;;;2091150;28;20119;-71
2022/02/08 02:42:44;;;;;;;23.50;8.60;;;3.30;99.90;;;;;;2100568;28;20024;-71
2022/02/08 02:43:45;;;;;;;25.48;8.77;;;3.30;99.90;;;;;;2107890;28;20083;-70
2022/02/08 02:44:47;;;;;;;20.73;8.20;;;3.20;99.90;;;;;;2099554;28;20119;-71
2022/02/08 02:45:52;;;;;;;23.17;8.32;;;3.30;99.90;;;;;;2100544;28;20036;-71
2022/02/08 02:46:54;;;;;;;17.85;7.65;;;3.20;99.90;;;;;;2100094;28;20024;-71
2022/02/08 02:47:55;;;;;;;16.30;8.07;;;3.20;99.90;;;;;;2100652;28;20066;-70
2022/02/08 02:48:59;;;;;;;17.23;7.82;;;3.20;99.90;;;;;;2092513;28;20021;-71
2022/02/08 02:50:00;;;;;;;17.50;7.90;;;3.20;99.90;;;;;;2092467;28;20033;-71
2022/02/08 02:51:01;;;;;;;17.75;7.82;;;3.20;99.90;;;;;;2098093;28;20025;-71
2022/02/08 02:52:09;;;;;;;19.45;7.55;;;3.20;99.90;;;;;;2101440;28;20490;-71
2022/02/08 02:53:15;;;;;;;20.83;8.32;;;3.20;99.90;;;;;;2100534;28;20033;-71
2022/02/08 02:54:18;;;;;;;17.90;7.72;;;3.10;99.90;;;;;;2101589;28;20052;-71
2022/02/08 02:55:22;;;;;;;16.38;7.70;;;3.10;99.90;;;;;;2102605;28;20046;-70
2022/02/08 02:56:23;;;;;;;19.98;7.88;;;3.10;99.90;;;;;;2109930;28;20054;-70
2022/02/08 02:57:26;;;;;;;15.65;7.80;;;3.10;99.90;;;;;;2109745;28;20111;-70
2022/02/08 02:58:30;;;;;;;15.38;7.70;;;3.10;99.90;;;;;;2108925;28;20091;-71
2022/02/08 02:59:34;;;;;;;16.83;8.07;;;3.10;99.90;;;;;;2108780;28;20020;-71
2022/02/08 03:00:39;;;;;;;19.80;7.80;;;3.00;99.90;;;;;;2109224;28;20837;-71
2022/02/08 03:02:30;;;;;;;19.17;8.48;;;3.00;99.90;;;;;;2101077;28;20032;-71
2022/02/08 03:04:28;;;;;;;18.35;8.10;;;2.90;99.90;;;;;;2100056;28;20028;-71
2022/02/08 03:18:39;;;;;;;20.47;8.80;;;3.00;99.90;;;;;;2112810;28;20135;-72
2022/02/08 03:19:41;;;;;;;23.92;9.32;;;3.00;99.90;;;;;;2103575;28;20255;-71
2022/02/08 03:20:42;;;;;;;23.05;9.43;;;3.00;99.90;;;;;;2110272;28;20103;-71
2022/02/08 03:21:48;;;;;;;16.85;8.30;;;3.00;99.90;;;;;;2108589;28;20033;-72
2022/02/08 03:22:49;;;;;;;19.05;8.80;;;3.00;99.90;;;;;;2110067;28;20078;-71
2022/02/08 03:23:50;;;;;;;20.20;8.98;;;3.00;99.90;;;;;;2101573;28;20028;-71
2022/02/08 03:24:50;;;;;;;17.90;8.98;;;2.90;99.90;;;;;;2101924;28;20404;-71
2022/02/08 03:25:51;;;;;;;21.23;9.15;;;2.90;99.90;;;;;;2101762;28;20028;-71
2022/02/08 03:26:58;;;;;;;15.18;8.60;;;2.90;99.90;;;;;;2100299;28;20119;-72
2022/02/08 03:27:59;;;;;;;17.42;8.48;;;2.90;99.90;;;;;;2093395;28;20040;-72
2022/02/08 03:29:00;;;;;;;18.73;8.65;;;2.90;99.90;;;;;;2100216;28;20028;-71
2022/02/08 03:30:06;;;;;;;14.45;8.40;;;2.90;99.90;;;;;;2108240;28;20028;-72
2022/02/08 03:31:06;;;;;;;20.80;8.80;;;2.90;99.90;;;;;;2099132;28;20028;-71
2022/02/08 03:32:10;;;;;;;19.90;9.35;;;2.90;99.90;;;;;;2098715;28;20177;-71
2022/02/08 03:33:11;;;;;;;22.52;9.25;;;2.90;99.90;;;;;;2090414;28;20582;-71
2022/02/08 03:34:14;;;;;;;19.25;8.80;;;2.90;99.90;;;;;;2098916;28;20031;-71
2022/02/08 03:35:18;;;;;;;20.38;8.95;;;2.90;99.90;;;;;;2106989;28;20019;-71
2022/02/08 03:36:23;;;;;;;20.35;8.60;;;2.90;99.90;;;;;;2099231;28;20025;-72
2022/02/08 03:37:31;;;;;;;17.60;8.48;;;2.90;99.90;;;;;;2107090;28;20040;-72
2022/02/08 03:38:37;;;;;;;16.95;8.40;;;2.90;99.90;;;;;;2107015;28;20030;-72
2022/02/08 03:39:42;;;;;;;16.92;9.20;;;2.90;99.90;;;;;;2099965;28;20109;-71
2022/02/08 03:40:52;;;;;;;19.25;9.15;;;2.90;99.90;;;;;;2099971;28;20020;-71
2022/02/08 03:42:04;;;;;;;16.65;8.30;;;2.90;99.90;;;;;;2107006;28;20059;-72
2022/02/08 03:43:25;;;;;;;15.10;8.75;;;3.00;99.90;;;;;;2106520;28;20123;-71
2022/02/08 03:44:31;;;;;;;22.05;8.77;;;3.00;99.90;;;;;;2100639;28;20028;-71
2022/02/08 03:45:33;;;;;;;16.45;8.45;;;3.00;99.90;;;;;;2106488;28;20261;-71
2022/02/08 03:46:33;;;;;;;18.63;8.55;;;3.00;99.90;;;;;;2105706;28;20117;-71
2022/02/08 03:47:36;;;;;;;21.67;8.98;;;3.10;99.90;;;;;;2097961;28;20024;-71
2022/02/08 03:48:39;;;;;;;17.75;8.65;;;3.10;99.90;;;;;;2097998;28;20036;-71
2022/02/08 03:49:40;;;;;;;18.20;8.32;;;3.20;99.90;;;;;;2106405;28;20116;-71
2022/02/08 03:50:44;;;;;;;17.13;8.70;;;3.20;99.90;;;;;;2106039;28;20044;-71
2022/02/08 03:51:54;;;;;;;15.02;8.23;;;3.20;99.90;;;;;;2105753;28;20027;-71
2022/02/08 03:52:55;;;;;;;;;;;3.20;99.90;;;;;;2096807;28;20029;-71
2022/02/08 03:53:56;;;;;;;18.42;8.30;;;3.20;99.90;;;;;;2097634;28;20658;-71
2022/02/08 03:55:03;;;;;;;19.73;8.77;;;3.30;99.90;;;;;;2098549;28;20031;-71
2022/02/08 03:56:07;;;;;;;18.58;8.70;;;3.30;99.90;;;;;;2105991;28;20441;-71
2022/02/08 03:57:09;;;;;;;15.13;8.60;;;3.30;99.90;;;;;;2097389;28;20021;-71
2022/02/08 03:58:11;;;;;;;15.65;8.35;;;3.30;99.90;;;;;;2097953;28;20027;-71
2022/02/08 03:59:13;;;;;;;16.15;8.23;;;3.30;99.90;;;;;;2107698;28;20075;-71
2022/02/08 04:00:21;;;;;;;18.83;8.50;;;3.30;99.90;;;;;;2108432;28;20116;-71
2022/02/08 04:02:15;;;;;;;20.92;8.77;;;3.30;99.90;;;;;;2106999;28;20028;-71
2022/02/08 04:02:52;;;;;;;21.80;9.00;;;3.40;99.90;;;;;;2102360;28;20032;-71
2022/02/08 04:04:20;;;;;;;16.80;8.43;;;3.40;99.90;;;;;;2106640;28;20024;-71
2022/02/08 04:06:20;;;;;;;20.60;8.95;;;3.40;99.90;;;;;;2106785;28;20759;-71
2022/02/08 04:07:47;;;;;;;18.85;8.82;;;3.40;99.90;;;;;;2106298;28;20024;-71
2022/02/08 04:08:41;;;;;;;;;;;3.40;99.90;;;;;;2106483;28;20032;-71
2022/02/08 04:09:43;;;;;;;16.05;8.40;;;3.50;99.90;;;;;;2105951;28;20540;-71
2022/02/08 04:10:44;;;;;;;20.48;8.82;;;3.50;99.90;;;;;;2105959;28;20038;-71
2022/02/08 04:12:01;;;;;;;19.65;9.18;;;3.50;99.90;;;;;;2106159;28;20552;-71
2022/02/08 04:13:12;;;;;;;20.02;8.95;;;3.50;99.90;;;;;;2106623;28;20081;-71
2022/02/08 04:14:25;;;;;;;19.38;9.02;;;3.50;99.90;;;;;;2106728;28;20020;-71
2022/02/08 04:15:43;;;;;;;20.67;9.18;;;3.50;99.90;;;;;;2106656;28;20055;-71
2022/02/08 04:16:44;;;;;;;21.23;8.85;;;3.40;99.90;;;;;;2106224;28;20038;-71
2022/02/08 04:32:10;;;;;;;19.13;8.63;;;3.60;99.90;;;;;;2107243;28;20098;-71
2022/02/08 04:33:30;;;;;;;18.27;8.55;;;3.60;99.90;;;;;;2107628;28;20066;-71
2022/02/08 04:34:47;;;;;;;19.30;8.63;;;3.60;99.90;;;;;;2107481;28;20084;-71
2022/02/08 04:38:11;;;;;;;16.75;8.30;;;3.70;99.90;;;;;;2106772;28;20566;-71
2022/02/08 04:39:33;;;;;;;19.35;8.48;;;3.70;99.90;;;;;;2106619;28;20563;-71
2022/02/08 04:41:49;;;;;;;20.30;8.15;;;3.80;99.90;;;;;;2106477;28;20036;-70
2022/02/08 04:44:17;;;;;;;21.08;8.73;;;3.80;99.90;;;;;;2106677;28;20115;-71
2022/02/08 04:45:34;;;;;;;22.58;8.48;;;3.70;99.90;;;;;;2106459;28;20030;-70
2022/02/08 04:49:00;;;;;;;14.93;7.85;;;3.70;99.90;;;;;;2106401;28;20101;-71
2022/02/08 04:50:00;;;;;;;21.33;8.70;;;3.80;99.90;;;;;;2106446;28;20028;-70
2022/02/08 04:51:15;;;;;;;21.13;8.90;;;3.70;99.90;;;;;;2106088;28;20114;-70
2022/02/08 04:52:17;;;;;;;22.60;8.63;;;3.70;99.90;;;;;;2105859;28;20020;-70
2022/02/08 04:53:29;;;;;;;19.85;8.73;;;3.80;99.90;;;;;;2106208;28;20067;-70
2022/02/08 04:54:59;;;;;;;15.73;8.10;;;3.80;99.90;;;;;;2106191;28;20114;-71
2022/02/08 04:55:59;;;;;;;;;;;3.80;99.90;;;;;;2106037;28;20037;-71
2022/02/08 04:59:39;;;;;;;17.40;8.50;;;3.80;99.90;;;;;;2106143;28;20047;-71
2022/02/08 05:29:56;;;;;;;20.55;7.60;;;4.00;99.90;;;;;;2106066;28;20087;-70
2022/02/08 05:35:34;;;;;;;19.25;9.25;;;4.10;99.90;;;;;;2105997;28;20024;-71
2022/02/08 05:41:00;;;;;;;15.95;7.35;;;4.10;99.90;;;;;;2106079;28;20028;-71
2022/02/08 05:44:42;;;;;;;17.42;7.00;;;4.10;99.90;;;;;;2103064;28;20090;-71
2022/02/08 05:46:55;;;;;;;15.40;6.97;;;4.10;99.90;;;;;;2105513;28;20035;-71
2022/02/08 05:47:59;;;;;;;15.55;6.78;;;4.10;99.90;;;;;;2106021;28;20047;-72
2022/02/08 05:49:05;;;;;;;13.95;6.18;;;4.10;99.90;;;;;;2105832;28;20043;-72
2022/02/08 05:50:23;;;;;;;12.38;6.50;;;4.10;99.90;;;;;;2105962;28;20073;-71
2022/02/08 05:51:33;;;;;;;18.08;7.05;;;4.10;99.90;;;;;;2106615;28;20044;-71
2022/02/08 05:52:47;;;;;;;17.08;6.65;;;4.10;99.90;;;;;;2106282;28;20039;-72
2022/02/08 05:53:48;;;;;;;18.13;6.55;;;4.10;99.90;;;;;;2105633;28;20036;-71
2022/02/08 05:54:49;;;;;;;22.17;6.97;;;4.20;99.90;;;;;;2105772;28;20057;-72
2022/02/08 05:55:49;;;;;;;16.83;6.55;;;4.20;99.90;;;;;;2106208;28;20028;-72
2022/02/08 05:56:53;;;;;;;18.38;6.10;;;4.20;99.90;;;;;;2105729;28;20039;-72
2022/02/08 05:57:55;;;;;;;17.73;6.63;;;4.20;99.90;;;;;;2106424;28;20020;-71
2022/02/08 05:58:55;;;;;;;18.75;6.70;;;4.20;99.90;;;;;;2107262;28;20081;-71
2022/02/08 05:59:56;;;;;;;17.80;6.45;;;4.20;99.90;;;;;;2108554;28;20028;-71
2022/02/08 06:00:59;;;;;;;17.23;6.50;;;4.20;99.90;;;;;;2108490;28;20046;-71
2022/02/08 06:02:13;;;;;;;14.13;6.40;;;4.20;99.90;;;;;;2105506;28;20513;-71
2022/02/08 06:03:30;;;;;;;16.70;5.80;;;4.20;99.90;;;;;;2099353;28;20107;-71
2022/02/08 06:04:36;;;;;;;14.18;6.28;;;4.30;99.90;;;;;;2097179;28;20111;-72
2022/02/08 06:05:37;;;;;;;16.38;6.28;;;4.30;99.90;;;;;;2105146;28;20032;-70
2022/02/08 06:06:38;;;;;;;16.25;6.38;;;4.30;99.90;;;;;;2105202;28;20536;-70
2022/02/08 06:07:38;;;;;;;16.67;6.55;;;4.30;99.90;;;;;;2105643;28;20035;-71
2022/02/08 06:08:39;;;;;;;15.40;6.05;;;4.30;99.90;;;;;;2105825;28;20053;-71
2022/02/08 06:09:40;;;;;;;16.80;5.57;;;4.30;99.90;;;;;;2105603;28;20387;-71
2022/02/08 06:10:48;;;;;;;12.48;5.63;;;4.30;99.90;;;;;;2105973;28;20383;-73
2022/02/08 06:11:48;;;;;;;23.95;6.15;;;4.30;99.90;;;;;;2105274;28;20085;-72
2022/02/08 06:12:52;;;;;;;13.93;5.85;;;4.30;99.90;;;;;;2105730;28;20468;-71
2022/02/08 06:13:59;;;;;;;15.93;6.10;;;4.30;99.90;;;;;;2105189;28;20028;-71
2022/02/08 06:15:07;;;;;;;13.10;5.70;;;4.40;99.90;;;;;;2096710;28;20033;-70
2022/02/08 06:16:17;;;;;;;12.32;5.28;;;4.40;99.90;;;;;;2097116;28;20115;-70
2022/02/08 06:17:18;;;;;;;17.08;5.93;;;4.40;99.90;;;;;;2096856;28;20028;-71
2022/02/08 06:18:18;;;;;;;13.85;5.68;;;4.40;99.90;;;;;;2104931;28;20107;-70
2022/02/08 06:19:19;;;;;;;14.23;5.75;;;4.40;99.90;;;;;;2105384;28;20024;-71
2022/02/08 06:20:20;;;;;;;19.40;5.43;;;4.40;99.90;;;;;;2104892;28;20070;-71
2022/02/08 06:21:20;;;;;;;13.82;5.20;;;4.40;99.90;;;;;;2104162;28;20024;-71
2022/02/08 06:22:22;;;;;;;18.80;5.78;;;4.40;99.90;;;;;;2105145;28;20507;-71
2022/02/08 06:23:23;;;;;;;12.88;5.53;;;4.40;99.90;;;;;;2104767;28;20564;-70
2022/02/08 06:24:24;;;;;;;16.23;5.35;;;4.40;99.90;;;;;;2104714;28;20103;-71
2022/02/08 06:25:24;;;;;;;17.00;5.85;;;4.40;99.90;;;;;;2105393;28;20409;-71
2022/02/08 06:26:26;;;;;;;15.95;5.18;;;4.50;99.90;;;;;;2104870;28;20032;-71
2022/02/08 06:27:30;;;;;;;15.25;5.00;;;4.50;99.90;;;;;;2104335;28;20519;-70
2022/02/08 06:28:31;;;;;;;15.43;5.32;;;4.50;99.90;;;;;;2105394;28;20415;-71
2022/02/08 06:29:31;;;;;;;14.18;6.10;;;4.50;99.90;;;;;;2105353;28;20032;-71
2022/02/08 06:30:32;;;;;;;16.73;5.82;;;4.50;99.90;;;;;;2096094;28;20435;-71
2022/02/08 06:31:33;;;;;;;13.32;5.18;;;4.50;99.90;;;;;;2096148;28;20147;-71
2022/02/08 06:32:35;;;;;;;17.75;5.15;;;4.50;99.90;;;;;;2105272;28;20032;-70
2022/02/08 06:33:36;;;;;;;14.43;5.45;;;4.50;99.90;;;;;;2104858;28;20024;-71
2022/02/08 06:34:36;;;;;;;17.92;5.70;;;4.50;99.90;;;;;;2096408;28;20024;-71
2022/02/08 06:35:37;;;;;;;16.80;5.10;;;4.50;99.90;;;;;;2104793;28;20131;-71
2022/02/08 06:36:38;;;;;;;13.63;4.93;;;4.50;99.90;;;;;;2104968;28;20365;-71
2022/02/08 06:37:40;;;;;;;12.65;4.93;;;4.50;99.90;;;;;;2105590;28;20051;-70
2022/02/08 06:38:40;;;;;;;15.43;5.25;;;4.60;99.90;;;;;;2105045;28;20100;-71
2022/02/08 06:39:42;;;;;;;15.55;4.97;;;4.60;99.90;;;;;;2096657;28;20052;-71
2022/02/08 06:40:47;;;;;;;15.25;5.07;;;4.60;99.90;;;;;;2105126;28;20024;-72
2022/02/08 06:41:48;;;;;;;13.95;4.88;;;4.60;99.90;;;;;;2105085;28;20677;-71
2022/02/08 06:42:49;;;;;;;16.00;5.00;;;4.60;99.90;;;;;;2105771;28;20082;-71
2022/02/08 06:43:49;;;;;;;15.75;5.22;;;4.60;99.90;;;;;;2105419;28;20032;-71
2022/02/08 06:44:50;;;;;;;13.18;4.63;;;4.60;99.90;;;;;;2097371;28;20187;-71
2022/02/08 06:45:51;;;;;;;13.57;4.93;;;4.60;99.90;;;;;;2104996;28;20036;-73
2022/02/08 06:46:51;;;;;;;12.50;4.93;;;4.60;99.90;;;;;;2105544;28;20024;-72
2022/02/08 06:47:52;;;;;;;14.88;4.60;;;4.60;99.90;;;;;;2106039;28;20827;-70
2022/02/08 06:48:54;;;;;;;12.18;4.53;;;4.60;99.90;;;;;;2105706;28;20028;-70
2022/02/08 06:49:54;;;;;;;12.13;4.40;;;4.60;99.90;;;;;;2105153;28;20024;-71
2022/02/08 06:50:55;;;;;;;13.82;4.95;;;4.70;99.90;;;;;;2105052;28;20042;-68
2022/02/08 06:51:56;;;;;;;16.13;5.00;;;4.70;99.90;;;;;;2105776;28;20063;-72
2022/02/08 06:52:56;;;;;;;10.40;4.10;;;4.70;99.90;;;;;;2105180;28;20027;-72
2022/02/08 06:53:57;;;;;;;12.55;4.60;;;4.70;99.90;;;;;;2105208;28;20114;-70
2022/02/08 06:55:01;;;;;;;13.60;4.40;;;4.70;99.90;;;;;;2105311;28;20028;-71
2022/02/08 06:56:03;;;;;;;14.02;4.57;;;4.70;99.90;;;;;;2102566;28;20021;-71
2022/02/08 06:57:05;;;;;;;10.85;4.30;;;4.70;99.90;;;;;;2093709;28;20033;-70
2022/02/08 06:58:08;;;;;;;12.82;4.57;;;4.70;99.90;;;;;;2096756;28;20057;-70
2022/02/08 06:59:11;;;;;;;12.57;4.28;;;4.70;99.90;;;;;;2105214;28;20028;-70
2022/02/08 07:00:16;;;;;;;14.70;4.35;;;4.70;99.90;;;;;;2105311;28;20012;-71
2022/02/08 07:01:19;;;;;;;15.63;4.65;;;4.70;99.90;;;;;;2105185;28;20063;-70
2022/02/08 07:02:20;;;;;;;13.30;4.25;;;4.70;99.90;;;;;;2104882;28;20036;-69